Time;durP1;ratioP1;P1;durP2;ratioP2;P2;SDS_P1;SDS_P2;PMS_P1;PMS_P2;Temp;Humidity;BMP_temperature;BMP_pressure;BME280_temperature;BME280_humidity;BME280_pressure;Samples;Min_cycle;Max_cycle;Signal;HPM_P1;HPM_P2
2023/07/20 00:01:59;;;;;;;23.83;1.43;;;;;;;26.71;53.68;98962.31;7312415;19;129116;-35
2023/07/20 00:04:24;;;;;;;40.97;2.23;;;;;;;26.89;54.11;98980.38;7313707;19;129625;-34
2023/07/20 00:06:50;;;;;;;39.93;2.30;;;;;;;26.92;54.14;98969.44;7313432;19;130064;-35
2023/07/20 00:09:15;;;;;;;19.10;1.20;;;;;;;26.94;54.28;98973.50;7313658;19;130326;-34
2023/07/20 00:11:49;;;;;;;54.63;3.37;;;;;;;26.97;54.62;98979.41;7311830;19;130717;-33
2023/07/20 00:14:14;;;;;;;40.80;2.30;;;;;;;26.95;54.45;98971.69;7314937;19;129438;-32
2023/07/20 00:16:40;;;;;;;69.07;4.00;;;;;;;26.98;54.78;98981.03;7314389;19;130634;-34
2023/07/20 00:19:06;;;;;;;10.73;0.70;;;;;;;26.99;54.23;98980.06;7314175;19;129626;-36
2023/07/20 00:21:32;;;;;;;25.10;1.42;;;;;;;26.97;54.59;98979.41;7313839;19;129398;-37
2023/07/20 00:23:57;;;;;;;43.67;2.53;;;;;;;26.99;54.47;98977.41;7313029;19;129337;-37
2023/07/20 00:26:22;;;;;;;18.80;1.20;;;;;;;26.99;54.40;98975.56;7314626;19;129999;-39
2023/07/20 00:28:50;;;;;;;70.57;4.30;;;;;;;26.99;55.18;98974.78;7312463;19;130362;-31
2023/07/20 00:31:15;;;;;;;27.00;1.52;;;;;;;26.52;50.36;98977.91;7312179;19;131265;-33
2023/07/20 00:33:40;;;;;;;42.60;2.30;;;;;;;26.45;50.52;98972.56;7312957;19;129242;-37
2023/07/20 00:36:06;;;;;;;18.80;1.10;;;;;;;26.46;52.41;98979.47;7313127;19;131394;-37
2023/07/20 00:38:31;;;;;;;25.83;1.50;;;;;;;26.71;54.29;98972.88;7310712;19;130681;-33
2023/07/20 00:40:57;;;;;;;58.90;3.37;;;;;;;26.83;53.95;98971.38;7312110;19;130700;-32
2023/07/20 00:43:22;;;;;;;49.53;2.73;;;;;;;26.88;54.37;98973.44;7313038;19;130603;-36
2023/07/20 00:45:47;;;;;;;46.43;2.67;;;;;;;26.91;54.61;98995.00;7311239;19;130252;-34
2023/07/20 00:48:14;;;;;;;25.70;1.53;;;;;;;26.93;54.44;98998.28;7312121;19;130460;-29
2023/07/20 00:50:40;;;;;;;12.82;0.93;;;;;;;26.94;54.03;98993.78;7313136;19;129496;-29
2023/07/20 00:53:06;;;;;;;76.13;4.40;;;;;;;26.96;54.16;98991.78;7309424;19;129087;-33
2023/07/20 00:55:31;;;;;;;41.90;2.30;;;;;;;26.97;54.19;98989.97;7313214;19;129944;-32
2023/07/20 00:57:58;;;;;;;47.17;3.03;;;;;;;26.99;54.50;98995.88;7311009;19;130989;-35
2023/07/20 01:00:23;;;;;;;32.92;1.80;;;;;;;26.98;54.08;99000.34;7312492;19;130087;-35
2023/07/20 01:02:49;;;;;;;28.40;1.70;;;;;;;26.97;54.44;98989.97;7308828;19;129008;-36
2023/07/20 01:05:17;;;;;;;24.00;1.43;;;;;;;26.99;54.36;98990.59;7311009;19;129140;-36
2023/07/20 01:07:58;;;;;;;8.70;0.70;;;;;;;26.62;50.33;98991.63;7312161;19;130336;-37
2023/07/20 01:10:41;;;;;;;25.52;1.52;;;;;;;26.43;50.53;98985.13;7312299;19;129600;-33
2023/07/20 01:13:09;;;;;;;73.40;4.43;;;;;;;26.36;51.32;98989.47;7307346;19;130537;-37
2023/07/20 01:15:35;;;;;;;46.60;2.70;;;;;;;26.70;54.03;98986.25;7310958;19;130378;-38
2023/07/20 01:18:04;;;;;;;27.43;1.73;;;;;;;26.83;53.90;98992.47;7310474;19;129612;-38
2023/07/20 01:20:33;;;;;;;6.43;0.47;;;;;;;26.90;54.70;98982.00;7312061;19;128958;-34
2023/07/20 01:23:04;;;;;;;25.20;1.58;;;;;;;26.92;54.38;98986.06;7309245;19;128819;-35
2023/07/20 01:25:53;;;;;;;32.10;1.92;;;;;;;26.97;54.46;98996.06;7310667;19;129435;-34
2023/07/20 01:28:44;;;;;;;36.20;2.10;;;;;;;26.97;54.90;98998.72;7309605;19;130352;-37
2023/07/20 01:31:36;;;;;;;60.92;3.60;;;;;;;26.92;54.81;99001.91;7309088;19;130314;-36
2023/07/20 01:34:03;;;;;;;25.17;1.48;;;;;;;26.90;54.56;99003.09;7310606;19;129364;-37
2023/07/20 01:36:34;;;;;;;38.97;2.15;;;;;;;26.95;54.73;99006.00;7312585;19;132072;-36
2023/07/20 01:39:00;;;;;;;28.05;1.63;;;;;;;26.99;54.46;99009.06;7312654;19;129697;-36
2023/07/20 01:41:25;;;;;;;27.10;1.73;;;;;;;26.99;54.39;99009.88;7310137;19;130497;-37
2023/07/20 01:43:51;;;;;;;29.30;1.87;;;;;;;26.98;54.55;99004.78;7311257;19;130143;-32
2023/07/20 01:46:16;;;;;;;81.37;4.63;;;;;;;26.51;50.86;99002.66;7307562;19;130398;-35
2023/07/20 01:48:42;;;;;;;27.70;1.57;;;;;;;26.44;50.32;98997.31;7313250;19;130225;-37
2023/07/20 01:51:07;;;;;;;41.13;2.23;;;;;;;26.43;51.93;99006.19;7317306;19;129224;-30
2023/07/20 01:53:33;;;;;;;24.43;1.37;;;;;;;26.70;53.48;99008.19;7317422;19;129502;-36
2023/07/20 01:55:58;;;;;;;45.80;2.37;;;;;;;26.83;54.34;98999.56;7317434;19;129699;-38
2023/07/20 01:58:24;;;;;;;63.03;3.77;;;;;;;26.87;54.00;99003.47;7316592;19;129687;-33
2023/07/20 02:00:49;;;;;;;64.67;3.87;;;;;;;26.90;54.55;99003.94;7316175;19;129275;-32
2023/07/20 02:03:15;;;;;;;59.80;3.47;;;;;;;26.93;54.18;99008.81;7317171;19;129017;-32
2023/07/20 02:05:43;;;;;;;25.50;1.50;;;;;;;26.85;54.26;98987.03;7316159;19;130158;-34
2023/07/20 02:08:09;;;;;;;24.63;1.48;;;;;;;26.97;54.29;98997.88;7317287;19;129164;-35
2023/07/20 02:10:35;;;;;;;30.77;1.77;;;;;;;26.97;54.56;99003.16;7316617;19;129049;-29
2023/07/20 02:13:01;;;;;;;40.80;2.57;;;;;;;26.98;54.39;98999.50;7314238;19;129193;-31
2023/07/20 02:15:27;;;;;;;77.67;4.60;;;;;;;26.98;54.03;98994.22;7317058;19;130150;-38
2023/07/20 02:17:52;;;;;;;25.42;1.52;;;;;;;26.98;54.41;99000.34;7316482;19;131299;-33
2023/07/20 02:20:19;;;;;;;32.33;1.80;;;;;;;27.00;54.22;98997.50;7316254;19;128754;-38
2023/07/20 02:22:44;;;;;;;28.23;1.73;;;;;;;26.79;51.30;98996.50;7315670;19;129185;-32
2023/07/20 02:25:10;;;;;;;40.10;2.23;;;;;;;26.40;50.84;98996.03;7315594;19;129470;-35
2023/07/20 02:27:36;;;;;;;61.33;3.70;;;;;;;26.37;50.06;99009.59;7315207;19;130949;-34
2023/07/20 02:30:02;;;;;;;28.17;1.67;;;;;;;26.54;53.80;99013.63;7317019;19;128890;-35
2023/07/20 02:32:28;;;;;;;72.47;4.13;;;;;;;26.76;54.28;99010.06;7313950;19;128988;-37
2023/07/20 02:34:53;;;;;;;37.25;2.17;;;;;;;26.85;53.95;99011.59;7317159;19;130233;-36
2023/07/20 02:37:19;;;;;;;31.27;1.93;;;;;;;26.85;54.06;98998.41;7316506;19;129574;-40
2023/07/20 02:39:44;;;;;;;15.13;1.03;;;;;;;26.93;54.14;99014.09;7316314;19;129184;-36
2023/07/20 02:42:09;;;;;;;47.73;2.57;;;;;;;26.87;54.24;98995.56;7314892;19;129538;-35
2023/07/20 02:44:35;;;;;;;67.57;3.97;;;;;;;26.96;54.12;99012.88;7315533;19;130675;-37
2023/07/20 02:47:00;;;;;;;63.50;3.73;;;;;;;26.98;54.27;99004.78;7315807;19;129676;-33
2023/07/20 02:49:26;;;;;;;6.37;0.57;;;;;;;26.99;54.79;99007.22;7317327;19;129961;-38
2023/07/20 02:51:52;;;;;;;39.93;2.27;;;;;;;26.96;54.54;99002.34;7315227;19;130168;-36
2023/07/20 02:54:17;;;;;;;31.93;1.73;;;;;;;26.97;54.88;99014.53;7316605;19;129556;-31
2023/07/20 02:56:42;;;;;;;62.70;3.73;;;;;;;27.00;54.17;99021.25;7315089;19;129614;-30
2023/07/20 02:59:08;;;;;;;14.87;1.00;;;;;;;26.99;54.68;99022.25;7316231;19;129929;-35
2023/07/20 03:01:33;;;;;;;62.37;3.57;;;;;;;26.52;50.44;99015.66;7313432;19;128929;-37
2023/07/20 03:03:58;;;;;;;23.60;1.33;;;;;;;26.40;50.37;99022.41;7317088;19;131811;-34
2023/07/20 03:06:24;;;;;;;34.60;2.17;;;;;;;26.32;50.30;99030.41;7312606;19;129147;-32
2023/07/20 03:08:51;;;;;;;38.87;2.23;;;;;;;26.61;54.13;99035.63;7315473;19;129596;-32
2023/07/20 03:11:18;;;;;;;44.60;2.42;;;;;;;26.79;54.07;99036.06;7315879;19;128925;-36
2023/07/20 03:13:44;;;;;;;58.95;3.50;;;;;;;26.87;53.71;99030.66;7313410;19;129658;-35
2023/07/20 03:16:12;;;;;;;22.92;1.35;;;;;;;26.91;54.11;99034.56;7316080;19;130788;-36
2023/07/20 03:18:40;;;;;;;33.47;1.90;;;;;;;26.93;54.57;99040.47;7314759;19;129008;-36
2023/07/20 03:21:07;;;;;;;43.70;2.25;;;;;;;26.93;54.89;99040.47;7314626;19;129008;-37
2023/07/20 03:23:33;;;;;;;26.75;1.58;;;;;;;26.84;54.17;99031.03;7314800;19;131035;-34
2023/07/20 03:25:58;;;;;;;36.70;2.23;;;;;;;26.95;54.40;99042.94;7312379;19;129646;-31
2023/07/20 03:28:23;;;;;;;48.67;2.90;;;;;;;26.97;54.77;99040.94;7313521;19;129158;-36
2023/07/20 03:30:58;;;;;;;64.93;3.83;;;;;;;27.01;54.82;99041.38;7315451;19;128923;-35
2023/07/20 03:33:31;;;;;;;26.65;1.58;;;;;;;26.98;54.37;99041.72;7315104;19;130163;-34
2023/07/20 03:35:56;;;;;;;49.60;3.05;;;;;;;26.99;54.62;99051.28;7314911;19;129247;-31
2023/07/20 03:38:22;;;;;;;34.03;1.90;;;;;;;26.99;54.70;99048.66;7314706;19;129926;-34
2023/07/20 03:40:52;;;;;;;66.22;3.78;;;;;;;26.53;51.74;99051.56;7313979;19;128970;-39
2023/07/20 03:43:17;;;;;;;36.70;2.13;;;;;;;26.34;50.57;99041.59;7313296;19;130840;-35
2023/07/20 03:45:43;;;;;;;27.20;1.53;;;;;;;26.27;52.79;99037.22;7313302;19;129124;-35
2023/07/20 03:48:09;;;;;;;5.40;0.40;;;;;;;26.68;53.96;99052.38;7313296;19;129938;-34
2023/07/20 03:50:34;;;;;;;35.33;1.97;;;;;;;26.82;54.58;99046.22;7314206;19;129369;-34
2023/07/20 03:52:59;;;;;;;87.00;5.23;;;;;;;26.87;54.17;99040.41;7309486;19;129188;-38
2023/07/20 03:55:25;;;;;;;25.10;1.47;;;;;;;26.84;54.79;99033.69;7314478;19;129711;-34
2023/07/20 03:57:50;;;;;;;57.30;3.00;;;;;;;26.92;54.34;99036.19;7313059;19;129800;-38
2023/07/20 04:00:17;;;;;;;29.87;1.77;;;;;;;26.94;54.88;99047.38;7313903;19;129018;-37
2023/07/20 04:02:42;;;;;;;34.60;1.98;;;;;;;26.87;54.46;99030.66;7312370;19;130240;-40
2023/07/20 04:05:08;;;;;;;64.63;3.77;;;;;;;26.93;54.67;99035.19;7311932;19;129672;-35
2023/07/20 04:07:33;;;;;;;27.13;1.53;;;;;;;26.89;54.94;99033.94;7313902;19;129283;-30
2023/07/20 04:09:58;;;;;;;76.77;4.47;;;;;;;26.96;54.69;99049.81;7312433;19;128816;-34
2023/07/20 04:12:24;;;;;;;38.37;2.50;;;;;;;26.99;54.49;99054.72;7310639;19;131501;-38
2023/07/20 04:14:49;;;;;;;26.67;1.43;;;;;;;26.98;54.63;99052.28;7313006;19;130096;-35
2023/07/20 04:17:14;;;;;;;42.03;2.50;;;;;;;26.86;52.36;99047.50;7313308;19;129104;-34
2023/07/20 04:19:40;;;;;;;45.43;2.50;;;;;;;26.43;50.11;99047.56;7314377;19;128819;-38
2023/07/20 04:22:05;;;;;;;35.67;2.33;;;;;;;26.39;50.59;99052.41;7311568;19;129363;-35
2023/07/20 04:24:30;;;;;;;27.57;1.53;;;;;;;26.51;53.42;99058.03;7313224;19;129398;-32
2023/07/20 04:26:56;;;;;;;31.83;1.77;;;;;;;26.74;53.49;99056.91;7313652;19;129329;-36
2023/07/20 04:29:21;;;;;;;26.97;1.47;;;;;;;26.84;53.76;99052.13;7313460;19;128911;-34
2023/07/20 04:31:46;;;;;;;30.40;1.67;;;;;;;26.87;54.66;99050.97;7312751;19;130995;-36
2023/07/20 04:34:12;;;;;;;66.03;3.97;;;;;;;26.92;54.35;99056.50;7312012;19;129714;-32
2023/07/20 04:36:37;;;;;;;42.60;2.30;;;;;;;26.93;54.51;99060.75;7313125;19;130572;-33
2023/07/20 04:39:04;;;;;;;33.27;1.97;;;;;;;26.94;54.34;99057.09;7311791;19;129904;-33
2023/07/20 04:41:29;;;;;;;;;;;;;;;27.04;54.95;99064.75;7312583;19;131738;-32
2023/07/20 04:43:55;;;;;;;26.53;1.47;;;;;;;26.97;54.58;99058.56;7312508;19;129310;-32
2023/07/20 04:46:21;;;;;;;78.87;4.50;;;;;;;26.97;54.72;99061.22;7310581;19;129083;-32
2023/07/20 04:48:47;;;;;;;27.90;1.58;;;;;;;26.91;54.99;99053.03;7312841;19;129164;-34
2023/07/20 04:51:13;;;;;;;43.00;2.55;;;;;;;26.95;55.06;99058.75;7312283;19;130241;-40
2023/07/20 04:53:38;;;;;;;48.53;2.57;;;;;;;26.94;54.28;99057.09;7312867;19;130025;-32
2023/07/20 04:56:04;;;;;;;42.20;2.33;;;;;;;26.52;50.57;99052.56;7313075;19;130316;-35
2023/07/20 04:58:29;;;;;;;36.60;2.10;;;;;;;26.35;50.40;99061.66;7311393;19;130209;-33
2023/07/20 05:00:55;;;;;;;31.97;1.83;;;;;;;26.33;50.41;99057.59;7313337;19;130921;-35
2023/07/20 05:03:20;;;;;;;57.27;3.27;;;;;;;26.59;54.19;99057.91;7311292;19;131046;-35
2023/07/20 05:05:48;;;;;;;44.63;2.47;;;;;;;26.78;54.54;99068.72;7311014;19;131418;-34
2023/07/20 05:08:14;;;;;;;34.70;1.88;;;;;;;26.77;54.57;99053.91;7312606;19;130486;-32
2023/07/20 05:10:39;;;;;;;34.03;2.00;;;;;;;26.88;54.26;99069.25;7310282;19;129500;-36
2023/07/20 05:13:04;;;;;;;49.53;2.97;;;;;;;26.91;54.43;99074.13;7308367;19;131580;-35
2023/07/20 05:15:32;;;;;;;59.30;3.40;;;;;;;26.90;54.46;99069.88;7309005;19;129438;-32
2023/07/20 05:17:57;;;;;;;26.20;1.52;;;;;;;26.92;54.35;99070.50;7311875;19;128999;-39
2023/07/20 05:20:23;;;;;;;23.10;1.30;;;;;;;26.94;54.42;99071.13;7312381;19;128987;-32
2023/07/20 05:22:48;;;;;;;72.47;4.23;;;;;;;26.96;55.02;99070.13;7307131;19;130456;-31
2023/07/20 05:25:13;;;;;;;38.40;2.20;;;;;;;26.85;54.34;99056.44;7312887;19;129849;-35
2023/07/20 05:27:40;;;;;;;5.93;0.50;;;;;;;26.85;54.84;99050.34;7312126;19;129373;-40
2023/07/20 05:30:07;;;;;;;25.73;1.50;;;;;;;26.97;54.83;99063.84;7311632;19;129223;-34
2023/07/20 05:32:33;;;;;;;39.83;2.13;;;;;;;26.85;54.62;99048.53;7311150;19;130393;-36
2023/07/20 05:34:58;;;;;;;64.13;3.77;;;;;;;26.58;50.42;99072.91;7311864;19;129432;-34
2023/07/20 05:37:24;;;;;;;27.77;1.43;;;;;;;26.47;50.63;99065.47;7311637;19;129841;-37
2023/07/20 05:39:49;;;;;;;9.67;0.70;;;;;;;26.42;49.78;99075.75;7310735;19;129385;-36
2023/07/20 05:42:15;;;;;;;66.03;3.83;;;;;;;26.67;53.72;99077.13;7308421;19;130758;-39
2023/07/20 05:44:41;;;;;;;29.37;1.70;;;;;;;26.80;53.99;99079.91;7310975;19;129136;-38
2023/07/20 05:47:06;;;;;;;60.47;3.67;;;;;;;26.85;53.55;99074.91;7306949;19;128833;-36
2023/07/20 05:49:31;;;;;;;4.40;0.40;;;;;;;26.91;53.88;99073.31;7310759;19;130845;-32
2023/07/20 05:51:57;;;;;;;47.30;2.60;;;;;;;26.92;54.18;99073.13;7309348;19;129453;-35
2023/07/20 05:54:24;;;;;;;102.67;5.80;;;;;;;26.92;54.53;99081.03;7307079;19;128935;-38
2023/07/20 05:56:49;;;;;;;29.20;1.80;;;;;;;26.93;53.99;99080.06;7309856;19;128882;-36
2023/07/20 05:59:16;;;;;;;57.73;3.37;;;;;;;26.96;54.35;99078.84;7309542;19;129179;-35
2023/07/20 06:01:41;;;;;;;44.58;2.40;;;;;;;26.94;54.27;99079.03;7308504;19;131620;-34
2023/07/20 06:04:06;;;;;;;22.77;1.37;;;;;;;26.97;54.62;99082.31;7311616;19;129348;-38
2023/07/20 06:06:32;;;;;;;36.87;2.10;;;;;;;26.96;54.47;99086.75;7307526;19;129077;-36
2023/07/20 06:08:57;;;;;;;31.00;1.67;;;;;;;26.97;54.54;99082.31;7310921;19;129393;-31
2023/07/20 06:11:22;;;;;;;60.30;3.47;;;;;;;26.97;54.63;99084.94;7308790;19;130868;-40
2023/07/20 06:13:48;;;;;;;23.17;1.47;;;;;;;26.46;51.00;99084.91;7310486;19;128981;-35
2023/07/20 06:16:13;;;;;;;24.47;1.47;;;;;;;26.34;50.49;99096.94;7309568;19;129303;-38
2023/07/20 06:18:38;;;;;;;65.17;3.83;;;;;;;26.33;51.99;99090.03;7308426;19;130120;-34
2023/07/20 06:21:04;;;;;;;42.50;2.33;;;;;;;26.60;53.64;99083.28;7309495;19;129194;-37
2023/07/20 06:23:33;;;;;;;7.63;0.45;;;;;;;26.77;54.05;99093.47;7306695;19;129027;-33
2023/07/20 06:25:58;;;;;;;24.27;1.40;;;;;;;26.84;53.67;99089.06;7308710;19;130311;-34
2023/07/20 06:28:23;;;;;;;31.87;1.83;;;;;;;26.88;53.79;99090.34;7310155;19;130259;-38
2023/07/20 06:30:50;;;;;;;71.87;4.20;;;;;;;26.91;54.16;99086.50;7309659;19;130661;-35
2023/07/20 06:33:16;;;;;;;27.27;1.50;;;;;;;26.92;54.37;99093.44;7307678;19;130775;-34
2023/07/20 06:35:42;;;;;;;25.83;1.50;;;;;;;26.93;54.39;99092.41;7312190;19;130378;-33
2023/07/20 06:38:08;;;;;;;46.63;2.65;;;;;;;26.93;54.52;99101.16;7315356;19;130124;-37
2023/07/20 06:40:33;;;;;;;40.47;2.30;;;;;;;26.94;54.76;99096.69;7317220;19;130501;-39
2023/07/20 06:42:58;;;;;;;56.63;3.47;;;;;;;26.95;54.65;99108.88;7313319;19;130267;-37
2023/07/20 06:45:24;;;;;;;13.37;0.87;;;;;;;26.96;54.90;99104.44;7315994;19;128865;-31
2023/07/20 06:47:49;;;;;;;41.67;2.27;;;;;;;26.94;54.51;99102.78;7315844;19;130009;-30
2023/07/20 06:50:15;;;;;;;40.47;2.47;;;;;;;26.93;53.76;99108.25;7315246;19;129371;-34
2023/07/20 06:52:41;;;;;;;21.10;1.43;;;;;;;26.47;50.84;99118.22;7314397;19;128805;-32
2023/07/20 06:55:07;;;;;;;60.67;3.33;;;;;;;26.46;50.06;99116.56;7315820;19;129224;-34
2023/07/20 06:57:32;;;;;;;47.73;2.50;;;;;;;26.40;52.29;99112.03;7316414;19;129574;-36
2023/07/20 06:59:57;;;;;;;24.07;1.33;;;;;;;26.68;54.03;99115.66;7317654;19;129614;-32
2023/07/20 07:02:23;;;;;;;34.43;2.03;;;;;;;26.79;54.09;99112.56;7313010;19;130659;-32
2023/07/20 07:04:48;;;;;;;32.00;1.77;;;;;;;26.85;54.56;99114.47;7315235;19;129839;-39
2023/07/20 07:07:14;;;;;;;43.77;2.67;;;;;;;26.88;54.67;99114.09;7312552;19;129478;-35
2023/07/20 07:09:41;;;;;;;27.10;1.52;;;;;;;26.80;53.94;99097.56;7316354;19;129132;-30
2023/07/20 07:12:06;;;;;;;24.45;1.38;;;;;;;26.90;54.72;99112.09;7314387;19;130004;-34
2023/07/20 07:14:32;;;;;;;68.53;4.13;;;;;;;26.92;54.51;99111.91;7313634;19;128972;-38
2023/07/20 07:16:57;;;;;;;40.10;2.17;;;;;;;26.83;54.44;99098.00;7315242;19;129137;-39
2023/07/20 07:19:23;;;;;;;59.00;3.47;;;;;;;26.90;54.38;99109.44;7314322;19;129906;-38
2023/07/20 07:21:48;;;;;;;35.80;1.97;;;;;;;26.92;54.51;99117.97;7314689;19;128961;-28
2023/07/20 07:24:13;;;;;;;37.90;2.07;;;;;;;26.92;54.69;99117.97;7315975;19;130270;-34
2023/07/20 07:26:39;;;;;;;77.60;4.63;;;;;;;26.92;54.60;99110.06;7312372;19;130030;-37
2023/07/20 07:29:04;;;;;;;22.37;1.33;;;;;;;26.76;51.33;99120.84;7314810;19;129747;-34
2023/07/20 07:31:30;;;;;;;34.13;1.80;;;;;;;26.41;50.11;99124.19;7314188;19;129542;-37
2023/07/20 07:33:56;;;;;;;85.97;4.93;;;;;;;26.36;50.18;99129.19;7313380;19;130515;-37
2023/07/20 07:36:21;;;;;;;28.63;1.60;;;;;;;26.46;52.78;99127.09;7314424;19;129163;-33
2023/07/20 07:38:47;;;;;;;26.77;1.57;;;;;;;26.67;54.08;99135.16;7314786;19;130293;-39
2023/07/20 07:41:12;;;;;;;21.13;1.20;;;;;;;26.79;54.15;99136.28;7314416;19;129371;-33
2023/07/20 07:43:38;;;;;;;49.77;2.67;;;;;;;26.83;54.21;99128.84;7315049;19;128993;-39
2023/07/20 07:46:04;;;;;;;55.80;3.40;;;;;;;26.88;54.69;99132.56;7312664;19;130925;-37
2023/07/20 07:48:29;;;;;;;28.00;1.63;;;;;;;26.89;54.37;99128.91;7315235;19;129940;-31
2023/07/20 07:50:55;;;;;;;45.17;2.33;;;;;;;26.88;54.35;99129.91;7314491;19;129043;-35
2023/07/20 07:53:20;;;;;;;40.37;2.20;;;;;;;26.90;54.56;99130.56;7315565;19;129220;-34
2023/07/20 07:55:47;;;;;;;31.63;1.77;;;;;;;26.83;54.59;99121.75;7316280;19;130039;-38
2023/07/20 07:58:13;;;;;;;60.28;3.60;;;;;;;26.90;54.70;99141.13;7313267;19;129119;-35
2023/07/20 08:00:39;;;;;;;28.90;1.67;;;;;;;26.90;54.27;99141.13;7316768;19;129621;-34
2023/07/20 08:03:06;;;;;;;54.10;2.97;;;;;;;26.90;54.82;99125.28;7311697;19;128764;-39
2023/07/20 08:05:32;;;;;;;24.20;1.40;;;;;;;26.90;54.44;99130.56;7314584;19;130284;-38
2023/07/20 08:07:57;;;;;;;20.17;1.17;;;;;;;26.53;50.59;99121.91;7314431;19;130421;-34
2023/07/20 08:10:23;;;;;;;71.27;4.13;;;;;;;26.37;50.46;99116.84;7314235;19;129462;-35
2023/07/20 08:12:48;;;;;;;44.23;2.43;;;;;;;26.32;50.65;99125.28;7312199;19;128976;-37
2023/07/20 08:15:14;;;;;;;24.37;1.67;;;;;;;26.55;53.60;99119.91;7312450;19;129601;-40
2023/07/20 08:17:41;;;;;;;30.67;1.80;;;;;;;26.63;53.92;99104.81;7313491;19;130469;-32
2023/07/20 08:20:09;;;;;;;22.35;1.30;;;;;;;26.72;54.15;99105.56;7313666;19;129394;-34
2023/07/20 08:22:35;;;;;;;52.15;2.90;;;;;;;26.85;54.36;99121.56;7311663;19;128995;-33
2023/07/20 08:25:00;;;;;;;31.33;1.77;;;;;;;26.86;54.59;99129.28;7314781;19;130139;-34
2023/07/20 08:27:25;;;;;;;53.60;3.33;;;;;;;26.79;54.36;99112.56;7309744;19;129679;-29
2023/07/20 08:29:51;;;;;;;22.60;1.40;;;;;;;26.89;54.47;99128.91;7313534;19;129203;-37
2023/07/20 08:32:16;;;;;;;47.63;2.67;;;;;;;26.90;54.41;99130.56;7311316;19;129872;-35
2023/07/20 08:34:42;;;;;;;23.53;1.43;;;;;;;26.90;54.21;99130.56;7312762;19;129841;-32
2023/07/20 08:37:09;;;;;;;66.10;3.97;;;;;;;26.91;54.38;99126.09;7312813;19;129409;-35
2023/07/20 08:39:35;;;;;;;62.20;3.65;;;;;;;26.89;54.23;99123.63;7312222;19;129106;-36
2023/07/20 08:42:04;;;;;;;23.23;1.33;;;;;;;26.80;54.85;99108.94;7312001;19;129679;-38
2023/07/20 08:44:31;;;;;;;39.15;2.35;;;;;;;26.88;54.71;99127.28;7312600;19;130538;-37
2023/07/20 08:46:57;;;;;;;26.75;1.42;;;;;;;26.42;50.97;99131.13;7310532;19;130456;-31
2023/07/20 08:49:23;;;;;;;;;;;;;;;26.33;50.43;99123.50;7314821;19;129465;-32
2023/07/20 08:51:48;;;;;;;48.77;2.93;;;;;;;26.37;53.53;99125.56;7311576;19;130492;-33
2023/07/20 08:54:15;;;;;;;26.70;1.50;;;;;;;26.62;54.06;99128.75;7313038;19;130174;-36
2023/07/20 08:56:41;;;;;;;;;;;;;;;26.84;54.07;99131.28;7312802;19;130469;-33
2023/07/20 08:59:08;;;;;;;40.78;2.15;;;;;;;26.82;54.34;99128.00;7310425;19;130586;-37
2023/07/20 09:01:35;;;;;;;27.67;1.63;;;;;;;26.83;54.51;99129.66;7312575;19;130314;-42
2023/07/20 09:04:01;;;;;;;13.35;0.82;;;;;;;26.83;54.37;99129.66;7310553;19;134296;-32
2023/07/20 09:06:27;;;;;;;26.90;1.60;;;;;;;26.86;54.12;99131.91;7311337;19;129453;-34
2023/07/20 09:08:52;;;;;;;73.43;4.33;;;;;;;26.87;54.80;99125.63;7311485;19;129089;-32
2023/07/20 09:11:17;;;;;;;34.27;1.90;;;;;;;26.87;54.69;99130.91;7313022;19;131000;-35
2023/07/20 09:13:43;;;;;;;35.70;2.13;;;;;;;26.88;54.56;99132.56;7311179;19;130151;-33
2023/07/20 09:16:13;;;;;;;28.37;1.63;;;;;;;26.86;54.76;99133.72;7311584;19;131953;-35
2023/07/20 09:18:38;;;;;;;38.25;2.20;;;;;;;26.87;54.56;99130.91;7311715;19;129172;-36
2023/07/20 09:21:08;;;;;;;39.80;2.33;;;;;;;26.88;55.17;99126.47;7311650;19;129357;-35
2023/07/20 09:23:39;;;;;;;16.23;1.02;;;;;;;26.49;51.86;99121.50;7311940;19;130622;-30
2023/07/20 09:26:12;;;;;;;53.55;3.15;;;;;;;26.32;50.90;99125.28;7310282;19;130590;-36
2023/07/20 09:28:57;;;;;;;30.52;1.73;;;;;;;26.38;51.17;99123.72;7310666;19;129424;-35
2023/07/20 09:31:23;;;;;;;11.38;0.90;;;;;;;26.59;54.04;99137.81;7310599;19;128977;-34
2023/07/20 09:33:49;;;;;;;44.03;2.30;;;;;;;26.73;53.57;99123.84;7311121;19;129014;-37
2023/07/20 09:36:15;;;;;;;;;;;;;;;26.89;53.95;99128.09;7311298;19;129694;-39
2023/07/20 09:38:43;;;;;;;24.80;1.43;;;;;;;26.83;54.52;99124.38;7310736;19;129188;-32
2023/07/20 09:41:12;;;;;;;51.92;3.13;;;;;;;26.85;54.28;99130.28;7309496;19;128921;-32
2023/07/20 09:43:39;;;;;;;45.95;2.53;;;;;;;26.74;54.28;99112.28;7311148;19;129511;-34
2023/07/20 09:46:05;;;;;;;54.88;3.28;;;;;;;26.83;54.35;99137.56;7310588;19;130650;-37
2023/07/20 09:48:30;;;;;;;24.97;1.47;;;;;;;26.78;54.77;99132.03;7310870;19;129561;-36
2023/07/20 09:50:56;;;;;;;27.80;1.63;;;;;;;26.87;54.73;99144.09;7312196;19;130000;-33
2023/07/20 09:53:25;;;;;;;76.50;4.43;;;;;;;26.76;54.55;99126.13;7310063;19;130161;-38
2023/07/20 09:55:52;;;;;;;38.10;2.08;;;;;;;26.87;54.89;99149.38;7312569;19;129075;-35
2023/07/20 09:58:18;;;;;;;68.38;4.07;;;;;;;26.86;54.65;99155.66;7310563;19;130086;-36
2023/07/20 10:00:50;;;;;;;28.27;1.60;;;;;;;26.72;51.95;99169.69;7310904;19;128829;-35
2023/07/20 10:03:20;;;;;;;83.00;4.65;;;;;;;26.23;50.49;99144.81;7306812;19;130242;-39
2023/07/20 10:05:51;;;;;;;33.78;1.90;;;;;;;26.26;50.66;99162.91;7309269;19;129157;-35
2023/07/20 10:08:18;;;;;;;66.88;3.78;;;;;;;26.41;53.70;99171.63;7308214;19;130310;-34
2023/07/20 10:10:46;;;;;;;10.60;0.77;;;;;;;26.62;53.63;99153.31;7315620;19;130587;-35
2023/07/20 10:13:17;;;;;;;33.83;1.95;;;;;;;26.77;54.51;99166.50;7313915;19;130193;-37
2023/07/20 10:16:03;;;;;;;76.95;4.10;;;;;;;26.81;55.02;99136.09;7316216;19;130427;-39
2023/07/20 10:18:38;;;;;;;66.28;3.47;;;;;;;26.72;54.52;99137.22;7314553;19;131098;-36
2023/07/20 10:21:06;;;;;;;33.53;1.92;;;;;;;26.84;54.72;99151.59;7316713;19;129338;-35
2023/07/20 10:23:33;;;;;;;27.23;1.50;;;;;;;26.85;54.99;99159.31;7316920;19;130151;-34
2023/07/20 10:25:59;;;;;;;50.60;3.15;;;;;;;26.86;54.38;99160.09;7315009;19;130400;-40
2023/07/20 10:28:25;;;;;;;42.80;2.35;;;;;;;26.87;55.09;99167.03;7316606;19;129192;-34
2023/07/20 10:30:51;;;;;;;42.13;2.73;;;;;;;26.87;54.56;99161.75;7316179;19;129267;-36
2023/07/20 10:33:18;;;;;;;29.60;1.70;;;;;;;26.87;54.75;99164.41;7314291;19;129026;-38
2023/07/20 10:35:54;;;;;;;22.10;1.38;;;;;;;26.86;55.09;99154.84;7316397;19;130271;-30
2023/07/20 10:38:20;;;;;;;34.80;1.93;;;;;;;26.87;54.86;99161.75;7316262;19;129390;-32
2023/07/20 10:40:55;;;;;;;35.47;2.10;;;;;;;26.36;50.95;99157.38;7316616;19;128838;-33
2023/07/20 10:43:20;;;;;;;30.80;1.70;;;;;;;26.30;50.32;99156.28;7317434;19;130684;-39
2023/07/20 10:45:50;;;;;;;23.80;1.47;;;;;;;26.35;53.88;99155.72;7316188;19;130558;-34
2023/07/20 10:48:19;;;;;;;73.35;4.25;;;;;;;26.60;54.14;99146.56;7314198;19;130673;-30
2023/07/20 10:50:45;;;;;;;45.33;2.45;;;;;;;26.60;54.68;99134.19;7316429;19;128900;-35
2023/07/20 10:53:12;;;;;;;74.47;4.15;;;;;;;26.76;54.47;99155.13;7312768;19;129556;-39
2023/07/20 10:55:38;;;;;;;25.40;1.48;;;;;;;26.80;54.11;99155.56;7316610;19;131234;-33
2023/07/20 10:58:17;;;;;;;36.93;2.23;;;;;;;26.82;54.51;99151.75;7315059;19;129666;-34
2023/07/20 11:01:00;;;;;;;29.45;1.60;;;;;;;26.86;54.62;99153.03;7316652;19;128797;-30
2023/07/20 11:03:40;;;;;;;53.75;2.95;;;;;;;26.82;54.64;99143.03;7315574;19;129171;-30
2023/07/20 11:06:24;;;;;;;33.88;1.90;;;;;;;26.88;54.61;99153.66;7314432;19;130452;-39
2023/07/20 11:08:55;;;;;;;44.88;2.40;;;;;;;26.85;54.64;99146.13;7315169;19;128982;-34
2023/07/20 11:11:24;;;;;;;61.10;3.70;;;;;;;26.84;54.64;99149.75;7315056;19;129778;-35
2023/07/20 11:14:04;;;;;;;29.25;1.63;;;;;;;26.85;55.35;99130.28;7315100;19;130080;-35
2023/07/20 11:16:34;;;;;;;36.28;2.15;;;;;;;26.82;54.91;99133.28;7313943;19;129565;-36
2023/07/20 11:18:59;;;;;;;34.40;2.15;;;;;;;26.35;50.77;99132.84;7315577;19;129375;-38